SBOSBO BOD / LFBD
Speedbird OnlineSpeedbird Online BOD / LFBD

Bordeaux-Mérignac Airport
01:22 16.9°C

Location Bordeaux, France
Latitude: 44.828300476100004
Longitude: -0.715556025505
Local Time 01:22 on 26 May 2024
UTC +2 hours (Europe/Paris)
Currency £1 equals EUR 1.17
METAR LFBD 252300Z AUTO 26007KT CAVOK 17/14 Q1016 BECMG BKN010
TAF TAF LFBD 251700Z 2518/2624 16005KT CAVOK TX23/2518Z TN12/2700Z BECMG 2518/2520 26005KT BECMG 2522/2524 BKN010 TEMPO 2602/2605 3000 -RA BKN006 BKN010 BECMG 2606/2608 SCT020 TEMPO 2608/2618 4000 -RA BKN015 TEMPO 2622/2624 BKN015
Weather As Of 26 May 2024 01:22
Description Clear sky
Wind 13 km/h from West (260°)
Cloud Cover 0%
Precipitation Rain: none, Snow: none
Sunrise 06:23
Sunset 21:36
NOTAM 32 active NOTAM
Rotations During the last 90 days there were
99 flights from LGW
1 flights from AJA
100 flights to LGW
1 flights to AJA
Lounges Salon des Vignobles , Terminal A
Web Airport Website | Wikipedia
Codes IATA: BOD
ICAO: LFBD
Altitude 49 Meter / 162 Feet
Distance 745 KM / 463 Miles
from London.
Runways
RunwayLength (m)Surface
053100Asphalt
112415Asphalt
233100Asphalt
292415Asphalt
Radio
TypeDescriptionFrequency
APPAQUITAINE APP118.6
ARRAPP121.2
ATISATIS131.15
GNDGND121.9
INFOAQUITAINE INFO120.575
OPSOPNS143.175
TWRTWR118.3
Live ATC



Support Speedbird Online

© 2017-2024 Speedbird Online